ADN75C EDDF-EDDN
Flight info
| Callsign | ADN75C |
|---|---|
| Flight time | N/A |
| Altitude | 23000 |
| Route | CINDY8S CINDY Z74 HAREM T104 ELMOX DCT LETKU LETKU1V |
| Aircraft | J328/M-SDGHIRWYZ/LB1 |
Departure
| Time | 2026-05-05 21:14 |
|---|---|
| Airport | Frankfurt Main Airport (EDDF) |
Arrival
| Time | N/A |
|---|---|
| Airport | Nuremberg Airport (EDDN) |
| Time | Latitude | Longitude | Altitude | Speed | Heading |
|---|---|---|---|---|---|
| 2026-05-05 20:33 | 50.02171 | 8.53164 | 331 ft | 0 kts | 69° |
| 2026-05-05 21:10 | 50.02186 | 8.53180 | 332 ft | 4 kts | 359° |
| 2026-05-05 21:10 | 50.02208 | 8.53162 | 330 ft | 3 kts | 298° |
| 2026-05-05 21:11 | 50.02208 | 8.53126 | 332 ft | 4 kts | 255° |
| 2026-05-05 21:11 | 50.02199 | 8.53099 | 334 ft | 2 kts | 226° |
| 2026-05-05 21:11 | 50.02187 | 8.53082 | 334 ft | 3 kts | 218° |
| 2026-05-05 21:11 | 50.02164 | 8.53049 | 331 ft | 9 kts | 244° |
| 2026-05-05 21:12 | 50.02149 | 8.52949 | 335 ft | 9 kts | 265° |
| 2026-05-05 21:12 | 50.02147 | 8.52857 | 335 ft | 8 kts | 285° |
| 2026-05-05 21:12 | 50.02181 | 8.52830 | 335 ft | 5 kts | 358° |
| 2026-05-05 21:12 | 50.02225 | 8.52830 | 334 ft | 10 kts | 1° |
| 2026-05-05 21:13 | 50.02308 | 8.52821 | 332 ft | 11 kts | 326° |
| 2026-05-05 21:13 | 50.02311 | 8.52711 | 335 ft | 11 kts | 251° |
| 2026-05-05 21:13 | 50.02259 | 8.52613 | 334 ft | 16 kts | 194° |
| 2026-05-05 21:13 | 50.01839 | 8.52614 | 333 ft | 111 kts | 179° |
| 2026-05-05 21:14 | 50.00874 | 8.52618 | 673 ft | 161 kts | 179° |
| 2026-05-05 21:14 | 49.99668 | 8.52645 | 1318 ft | 176 kts | 179° |
| 2026-05-05 21:14 | 49.98477 | 8.52721 | 2374 ft | 168 kts | 179° |
| 2026-05-05 21:14 | 49.97304 | 8.52832 | 3244 ft | 169 kts | 179° |
| 2026-05-05 21:15 | 49.96121 | 8.52966 | 4045 ft | 171 kts | 179° |
| 2026-05-05 21:15 | 49.94960 | 8.53391 | 4793 ft | 180 kts | 148° |
| 2026-05-05 21:15 | 49.94278 | 8.55097 | 5574 ft | 197 kts | 110° |
| 2026-05-05 21:15 | 49.93742 | 8.57138 | 6178 ft | 216 kts | 120° |
| 2026-05-05 21:16 | 49.93011 | 8.59352 | 6503 ft | 248 kts | 119° |
| 2026-05-05 21:16 | 49.92173 | 8.61986 | 6760 ft | 298 kts | 118° |
| 2026-05-05 21:16 | 49.91204 | 8.65100 | 7047 ft | 340 kts | 117° |
| 2026-05-05 21:16 | 49.90157 | 8.68491 | 7357 ft | 338 kts | 117° |
| 2026-05-05 21:17 | 49.89599 | 8.70319 | 7524 ft | 318 kts | 117° |